»·PEaware :: UAL2994 KSNA-KSFO

UAL2994 :: KSNA-KSFO

FLIGHT INFORMATION

Flight Status: Arrived
Operator:
United Airlines
More flights by this operator :: More flights under this callsign
Pilot: Julien G. (19066)
Aircraft: BOEING 737-900
(B739)
More flights by this aircraft type
Origin: KSNA John Wayne-Orange Co
United States
Destination: KSFO San Francisco Intl
United States
More flights between these airports :: More routes between these airports
Route: +HHERO2 IKAYE RIZIN SPLNT STOKD SERFR SERFR3
File this flight plan on PilotEdge
Remarks: RMK / POWERED BY SIMBRIEF
Altitude:
(Current/Filed)
40,000ft
Speed:
(Current/Filed)
448kts
Departed: 29-Apr-18 02:30 PM
Arrived: 29-Apr-18 03:36 PM
Distance/Time
Traveled:
323nm/1:06
Distance/Time
To Go:
Arrived

Flight Plot

Page will automatically refresh every two minutes.

Flight plan parsing failed; only flown route is shown


Map Options




Map Legend


Flown Route
Filed Route
Departure Airport
Arrival Airport
Navaid (VOR, NDB)
Fix

Horizontal Profiles

Position Reports

Time Latitude Longitude Heading Altitude Ground
Speed
29-Apr-18 14:09 33.678327 -117.863049 117 44ft 0kts
29-Apr-18 14:10 33.678327 -117.863049 117 44ft 0kts
29-Apr-18 14:11 33.678327 -117.863049 117 44ft 0kts
29-Apr-18 14:12 33.678327 -117.863049 117 44ft 0kts
29-Apr-18 14:13 33.678327 -117.863049 117 44ft 0kts
29-Apr-18 14:14 33.678327 -117.863049 117 44ft 0kts
29-Apr-18 14:15 33.678327 -117.863049 117 44ft 0kts
29-Apr-18 14:16 33.678327 -117.863049 117 43ft 0kts
29-Apr-18 14:17 33.678327 -117.863049 117 43ft 0kts
29-Apr-18 14:18 33.678327 -117.863049 117 43ft 0kts
29-Apr-18 14:19 33.678327 -117.863049 117 43ft 0kts
29-Apr-18 14:20 33.678327 -117.863049 117 43ft 0kts
29-Apr-18 14:21 33.678327 -117.863049 117 43ft 0kts
29-Apr-18 14:22 33.678461 -117.863363 117 44ft 2kts
29-Apr-18 14:23 33.678355 -117.863787 24 44ft 1kts
29-Apr-18 14:24 33.678348 -117.863791 25 44ft 0kts
29-Apr-18 14:25 33.678531 -117.863687 25 44ft 5kts
29-Apr-18 14:26 33.680555 -117.862840 306 43ft 3kts
29-Apr-18 14:27 33.680643 -117.863038 295 43ft 0kts
29-Apr-18 14:28 33.681166 -117.865374 206 44ft 12kts
29-Apr-18 14:29 33.650790 -117.884564 206 1443ft 170kts
29-Apr-18 14:30 33.600027 -117.904811 175 3529ft 231kts
29-Apr-18 14:31 33.541584 -117.935016 223 6339ft 257kts
29-Apr-18 14:32 33.487374 -117.995746 225 8007ft 271kts
29-Apr-18 14:33 33.446879 -118.071019 242 10599ft 284kts
29-Apr-18 14:34 33.421716 -118.161552 296 13113ft 301kts
29-Apr-18 14:35 33.479972 -118.234854 314 15976ft 312kts
29-Apr-18 14:36 33.543166 -118.307920 314 18626ft 322kts
29-Apr-18 14:37 33.607954 -118.383008 313 21035ft 331kts
29-Apr-18 14:38 33.674865 -118.460727 313 23243ft 341kts
29-Apr-18 14:39 33.742722 -118.541057 311 25250ft 349kts
29-Apr-18 14:40 33.810423 -118.626647 311 27074ft 358kts
29-Apr-18 14:41 33.877955 -118.712442 310 28705ft 366kts
29-Apr-18 14:42 33.947629 -118.801228 310 30549ft 363kts
29-Apr-18 14:43 34.016079 -118.888640 310 32271ft 356kts
29-Apr-18 14:44 34.083483 -118.974924 309 33659ft 352kts
29-Apr-18 14:45 34.149924 -119.060295 310 34087ft 370kts
29-Apr-18 14:46 34.222458 -119.153691 310 34081ft 391kts
29-Apr-18 14:47 34.296909 -119.249706 310 34077ft 393kts
29-Apr-18 14:48 34.371711 -119.346405 310 34077ft 393kts
29-Apr-18 14:49 34.446213 -119.442963 310 34071ft 393kts
29-Apr-18 14:50 34.520616 -119.539648 310 34065ft 393kts
29-Apr-18 14:51 34.594747 -119.636231 310 34064ft 393kts
29-Apr-18 14:52 34.668750 -119.733108 309 34075ft 393kts
29-Apr-18 14:53 34.742805 -119.830378 309 34076ft 393kts
29-Apr-18 14:54 34.816945 -119.928005 309 34079ft 393kts
29-Apr-18 14:55 34.891045 -120.025829 309 34083ft 393kts
29-Apr-18 14:56 34.963293 -120.121344 308 34093ft 379kts
29-Apr-18 14:57 35.033345 -120.214162 307 34104ft 366kts
29-Apr-18 14:58 35.100981 -120.304063 306 34096ft 369kts
29-Apr-18 14:59 35.169509 -120.395452 306 34099ft 366kts
29-Apr-18 15:00 35.238067 -120.487155 306 34114ft 368kts
29-Apr-18 15:01 35.307196 -120.579860 306 34110ft 368kts
29-Apr-18 15:02 35.375343 -120.671587 305 34129ft 368kts
29-Apr-18 15:03 35.443743 -120.764342 305 34112ft 367kts
29-Apr-18 15:04 35.517231 -120.851994 314 34101ft 376kts
29-Apr-18 15:05 35.600195 -120.928316 315 34105ft 378kts
29-Apr-18 15:06 35.683652 -121.005516 315 34099ft 375kts
29-Apr-18 15:07 35.766056 -121.082035 315 34099ft 369kts
29-Apr-18 15:08 35.847325 -121.157850 316 34095ft 367kts
29-Apr-18 15:09 35.926956 -121.232305 316 32542ft 364kts
29-Apr-18 15:10 36.007791 -121.308144 317 30614ft 362kts
29-Apr-18 15:11 36.087181 -121.381325 321 28936ft 357kts
29-Apr-18 15:12 36.166206 -121.442465 322 27316ft 350kts
29-Apr-18 15:13 36.247611 -121.505617 323 25420ft 341kts
29-Apr-18 15:14 36.326265 -121.566908 323 23771ft 335kts
29-Apr-18 15:15 36.404168 -121.627851 324 22164ft 330kts
29-Apr-18 15:16 36.480796 -121.688077 323 20511ft 326kts
29-Apr-18 15:17 36.555430 -121.746994 324 19079ft 320kts
29-Apr-18 15:18 36.630119 -121.806110 324 17708ft 318kts
29-Apr-18 15:19 36.703975 -121.864687 325 16226ft 314kts
29-Apr-18 15:20 36.782866 -121.908939 343 14874ft 317kts
29-Apr-18 15:21 36.867705 -121.931395 344 13541ft 313kts
29-Apr-18 15:22 36.951361 -121.954280 343 12244ft 309kts
29-Apr-18 15:23 37.029274 -121.983780 339 10972ft 273kts
29-Apr-18 15:24 37.099199 -122.010994 339 9854ft 261kts
29-Apr-18 15:25 37.167351 -122.037641 340 8763ft 263kts
29-Apr-18 15:26 37.236357 -122.064652 341 7655ft 252kts
29-Apr-18 15:27 37.304080 -122.091237 341 6566ft 257kts
29-Apr-18 15:28 37.370665 -122.117370 342 5490ft 243kts
29-Apr-18 15:29 37.433398 -122.142011 342 4484ft 238kts
29-Apr-18 15:30 37.493229 -122.163317 346 3531ft 207kts
29-Apr-18 15:31 37.539495 -122.188730 300 2744ft 187kts
29-Apr-18 15:32 37.563877 -122.244670 297 1939ft 173kts
29-Apr-18 15:33 37.584381 -122.293151 295 1246ft 149kts
29-Apr-18 15:34 37.604198 -122.340111 295 402ft 150kts
29-Apr-18 15:35 37.619700 -122.377478 298 26ft 26kts
29-Apr-18 15:36 37.619414 -122.381441 299 30ft 14kts
29-Apr-18 15:37 37.621918 -122.387400 299 30ft 21kts
29-Apr-18 15:38 37.621007 -122.391903 208 30ft 20kts
29-Apr-18 15:39 37.618201 -122.389095 151 30ft 9kts
29-Apr-18 15:40 37.617708 -122.388847 159 30ft 0kts
29-Apr-18 15:41 37.617708 -122.388847 159 30ft 0kts

Navigation Log

Ident Type
Flight plan parsing failed, navigation log unavailable